Terminal Aerodrome Forecast
Issued by NWS Shreveport, LA

Home | Current Version | Previous Version | Text Only | Print | Product List | Glossary On
Versions: 1 2 3 4 5 6 7 8 9 10 11 12 13 14 15
926
FTUS44 KSHV 222320
TAFELD
TAF
KELD 222320Z 2300/2324 VRB04KT P6SM FEW050
     FM230400 00000KT P6SM SCT250
     FM230900 33003KT P6SM VCSH BKN050 BKN250
     FM231500 04005KT P6SM VCTS BKN035CB BKN150 BKN200
      TEMPO 2320/2324 -TSRA BKN040CB=

USA.gov is the U.S. government's official web portal to all federal, state and local government web resources and services.